Time;durP1;ratioP1;P1;durP2;ratioP2;P2;SDS_P1;SDS_P2;PMS_P1;PMS_P2;Temp;Humidity;BMP_temperature;BMP_pressure;BME280_temperature;BME280_humidity;BME280_pressure;Samples;Min_cycle;Max_cycle;Signal;HPM_P1;HPM_P2
2021/09/03 00:01:31;;;;;;;5.50;4.60;;;;;;;17.03;67.11;95506.06;5016380;28;20454;-83
2021/09/03 00:03:58;;;;;;;7.13;5.37;;;;;;;16.98;67.03;95497.72;5016516;28;20451;-83
2021/09/03 00:06:25;;;;;;;5.40;4.90;;;;;;;17.00;66.84;95501.88;5016695;28;20559;-83
2021/09/03 00:08:52;;;;;;;12.03;5.33;;;;;;;16.99;67.25;95500.22;5014106;28;20471;-83
2021/09/03 00:11:20;;;;;;;5.27;4.50;;;;;;;16.90;67.64;95498.50;5016482;28;20450;-83
2021/09/03 00:13:47;;;;;;;7.20;5.87;;;;;;;16.89;67.87;95499.50;4981667;28;20527;-83
2021/09/03 00:16:18;;;;;;;6.50;6.00;;;;;;;16.84;68.48;95493.84;5016084;28;20582;-83
2021/09/03 00:18:45;;;;;;;5.47;4.83;;;;;;;16.80;68.27;95484.53;4998239;28;20487;-83
2021/09/03 00:21:12;;;;;;;6.17;5.63;;;;;;;16.76;68.41;95499.03;5015829;28;20938;-83
2021/09/03 00:23:40;;;;;;;5.70;5.20;;;;;;;16.80;68.29;95500.44;5015924;28;20450;-83
2021/09/03 00:26:07;;;;;;;6.87;5.80;;;;;;;16.79;68.34;95493.47;5015967;28;20527;-83
2021/09/03 00:28:35;;;;;;;6.20;5.10;;;;;;;16.76;68.03;95498.22;5016153;28;20518;-83
2021/09/03 00:31:02;;;;;;;5.23;4.83;;;;;;;16.73;67.75;95488.75;5015768;28;20455;-83
2021/09/03 00:33:29;;;;;;;5.30;4.80;;;;;;;16.72;67.53;95485.28;5015490;28;20461;-83
2021/09/03 00:35:56;;;;;;;7.23;6.17;;;;;;;16.73;67.25;95488.75;4998454;28;20456;-83
2021/09/03 00:38:23;;;;;;;5.50;5.00;;;;;;;16.75;66.85;95483.28;5015708;28;20530;-83
2021/09/03 00:40:50;;;;;;;5.27;4.20;;;;;;;16.77;67.14;95494.56;5014616;28;20817;-83
2021/09/03 00:43:18;;;;;;;6.20;5.40;;;;;;;16.75;67.11;95491.25;5015497;28;20530;-83
2021/09/03 00:45:46;;;;;;;4.90;4.43;;;;;;;16.70;67.04;95494.34;5015574;28;20443;-83
2021/09/03 00:48:13;;;;;;;5.63;4.60;;;;;;;16.70;66.92;95484.59;5015562;28;20473;-83
2021/09/03 00:50:41;;;;;;;7.07;5.73;;;;;;;16.67;66.83;95478.75;5015276;28;20455;-83
2021/09/03 00:53:08;;;;;;;5.30;4.80;;;;;;;16.64;67.46;95485.19;5015413;28;20522;-83
2021/09/03 00:55:35;;;;;;;6.50;5.10;;;;;;;16.61;67.09;95482.84;4996966;28;20526;-83
2021/09/03 00:58:02;;;;;;;5.40;4.90;;;;;;;16.59;67.68;95481.31;5015043;28;21237;-83
2021/09/03 01:00:29;;;;;;;5.47;4.97;;;;;;;16.57;67.81;95483.28;5015555;28;20447;-83
2021/09/03 01:02:57;;;;;;;5.60;5.07;;;;;;;16.53;67.12;95477.47;5015605;28;20862;-83
2021/09/03 01:05:26;;;;;;;5.70;4.97;;;;;;;16.51;67.69;95482.09;5015055;28;20953;-82
2021/09/03 01:07:53;;;;;;;6.47;5.40;;;;;;;16.47;67.59;95478.06;5015657;28;20466;-82
2021/09/03 01:10:22;;;;;;;7.67;5.50;;;;;;;16.43;67.97;95479.34;5015176;28;20518;-83
2021/09/03 01:12:49;;;;;;;6.23;4.27;;;;;;;16.35;68.30;95476.63;5015362;28;20462;-83
2021/09/03 01:15:18;;;;;;;7.47;5.20;;;;;;;16.31;68.36;95467.31;5015225;28;20443;-83
2021/09/03 01:17:45;;;;;;;8.63;5.00;;;;;;;16.33;69.07;95475.94;5014359;28;21093;-82
2021/09/03 01:20:15;;;;;;;6.67;6.00;;;;;;;16.33;68.67;95476.78;5014719;28;20540;-81
2021/09/03 01:22:44;;;;;;;5.17;4.67;;;;;;;16.28;69.01;95473.75;5014978;28;20455;-83
2021/09/03 01:25:11;;;;;;;6.47;4.77;;;;;;;16.27;68.47;95468.59;5014614;28;20451;-83
2021/09/03 01:27:39;;;;;;;5.87;5.17;;;;;;;16.18;68.28;95467.69;5015108;28;20556;-83
2021/09/03 01:30:10;;;;;;;6.60;4.73;;;;;;;16.10;69.18;95475.53;5014624;28;20457;-83
2021/09/03 01:32:37;;;;;;;5.53;4.80;;;;;;;16.13;68.48;95474.41;5014774;28;20466;-82
2021/09/03 01:35:04;;;;;;;8.70;5.20;;;;;;;16.18;69.02;95469.50;5014838;28;20807;-83
2021/09/03 01:37:32;;;;;;;5.60;4.50;;;;;;;16.17;68.45;95465.19;4996121;28;20578;-83
2021/09/03 01:40:00;;;;;;;5.30;4.70;;;;;;;16.14;69.04;95457.53;5015046;28;20460;-83
2021/09/03 01:42:28;;;;;;;7.80;5.97;;;;;;;16.17;69.67;95465.19;4996107;28;20453;-83
2021/09/03 01:44:55;;;;;;;5.87;5.27;;;;;;;16.11;69.24;95451.56;5014363;28;20532;-83
2021/09/03 01:47:22;;;;;;;5.30;4.80;;;;;;;16.15;69.16;95453.91;5014567;28;20439;-83
2021/09/03 01:49:49;;;;;;;6.13;5.50;;;;;;;16.15;68.75;95444.16;4996327;28;20526;-83
2021/09/03 01:52:16;;;;;;;5.23;4.73;;;;;;;16.19;68.32;95442.03;5013892;28;20970;-83
2021/09/03 01:54:45;;;;;;;7.60;4.80;;;;;;;16.14;69.28;95437.19;4996250;28;20529;-83
2021/09/03 01:57:14;;;;;;;7.70;6.10;;;;;;;16.13;68.93;95446.13;4996381;28;20483;-83
2021/09/03 01:59:41;;;;;;;5.50;5.00;;;;;;;15.98;69.20;95455.56;5014379;28;20457;-83
2021/09/03 02:02:08;;;;;;;5.63;5.13;;;;;;;15.94;69.58;95455.03;5014046;28;20448;-83
2021/09/03 02:04:35;;;;;;;5.90;5.27;;;;;;;15.87;68.88;95447.81;4995913;28;20811;-83
2021/09/03 02:07:02;;;;;;;11.33;5.57;;;;;;;15.82;69.44;95444.78;4995875;28;20524;-83
2021/09/03 02:09:29;;;;;;;6.60;5.83;;;;;;;15.84;69.54;95441.00;4995693;28;20817;-83
2021/09/03 02:11:56;;;;;;;6.30;5.10;;;;;;;15.85;69.25;95442.69;5013743;28;20963;-83
2021/09/03 02:14:24;;;;;;;6.67;5.47;;;;;;;15.85;69.41;95445.31;5013823;28;20462;-83
2021/09/03 02:16:51;;;;;;;5.20;4.70;;;;;;;15.82;69.38;95440.31;5013643;28;20990;-82
2021/09/03 02:19:18;;;;;;;7.03;4.83;;;;;;;15.77;69.63;95437.31;5013700;28;20946;-83
2021/09/03 02:21:45;;;;;;;5.50;5.00;;;;;;;15.65;69.58;95428.75;5013658;28;20528;-82
2021/09/03 02:24:12;;;;;;;10.27;5.60;;;;;;;15.63;69.92;95429.88;5013858;28;20545;-83
2021/09/03 02:26:39;;;;;;;5.87;5.37;;;;;;;15.59;70.03;95418.72;5013797;28;20452;-83
2021/09/03 02:29:06;;;;;;;6.37;4.93;;;;;;;15.61;69.70;95418.59;5013608;28;20450;-83
2021/09/03 02:31:34;;;;;;;6.43;5.60;;;;;;;15.57;70.10;95418.00;5013524;28;20460;-83
2021/09/03 02:34:01;;;;;;;5.80;5.30;;;;;;;15.58;69.87;95416.19;5013686;28;20441;-83
2021/09/03 02:36:28;;;;;;;5.30;4.90;;;;;;;15.57;70.56;95403.97;5013792;28;20436;-82
2021/09/03 02:38:55;;;;;;;9.33;5.10;;;;;;;15.57;70.38;95410.06;5013603;28;20528;-82
2021/09/03 02:41:22;;;;;;;5.47;4.97;;;;;;;15.54;70.31;95409.53;5013404;28;20536;-83
2021/09/03 02:43:49;;;;;;;6.20;5.60;;;;;;;15.43;70.12;95406.13;4995176;28;20544;-83
2021/09/03 02:46:16;;;;;;;6.33;5.30;;;;;;;15.44;70.40;95406.97;5013145;28;20455;-82
2021/09/03 02:48:44;;;;;;;5.20;4.80;;;;;;;15.43;70.21;95400.84;5013701;28;20447;-83
2021/09/03 02:51:11;;;;;;;6.00;5.50;;;;;;;15.44;70.26;95409.59;5013235;28;20453;-83
2021/09/03 02:53:38;;;;;;;5.70;5.20;;;;;;;15.42;70.26;95415.03;5013465;28;20448;-83
2021/09/03 02:56:05;;;;;;;8.40;5.30;;;;;;;15.43;70.26;95419.34;5013347;28;20459;-83
2021/09/03 02:58:32;;;;;;;9.20;5.80;;;;;;;15.32;71.00;95411.59;5013009;28;20518;-82
2021/09/03 03:00:59;;;;;;;5.43;4.87;;;;;;;15.29;70.80;95406.59;4994829;28;21134;-82
2021/09/03 03:03:26;;;;;;;13.13;5.23;;;;;;;15.26;70.73;95417.47;5013024;28;20523;-82
2021/09/03 03:05:55;;;;;;;5.57;4.77;;;;;;;15.21;70.80;95409.16;5013030;28;20627;-82
2021/09/03 03:08:22;;;;;;;7.57;5.80;;;;;;;15.22;70.83;95420.56;5013129;28;20453;-82
2021/09/03 03:10:49;;;;;;;9.10;5.30;;;;;;;15.24;71.25;95424.72;5012855;28;20541;-82
2021/09/03 03:13:24;;;;;;;10.47;5.23;;;;;;;15.07;71.83;95422.84;5012867;28;20527;-82
2021/09/03 03:15:52;;;;;;;5.90;5.37;;;;;;;15.13;72.10;95422.25;4995958;28;20502;-82
2021/09/03 03:18:19;;;;;;;5.33;4.83;;;;;;;15.14;72.06;95422.13;5012800;28;21008;-83
2021/09/03 03:20:51;;;;;;;11.97;7.60;;;;;;;15.08;72.44;95408.66;5013042;28;20594;-82
2021/09/03 03:23:20;;;;;;;5.63;5.13;;;;;;;15.09;71.89;95429.66;5012986;28;20450;-82
2021/09/03 03:25:49;;;;;;;6.50;5.90;;;;;;;15.09;71.90;95415.59;4994484;28;20476;-82
2021/09/03 03:28:16;;;;;;;6.03;5.53;;;;;;;15.13;71.75;95423.09;5013031;28;20452;-82
2021/09/03 03:30:43;;;;;;;7.10;6.23;;;;;;;15.13;72.22;95422.25;5012946;28;20927;-82
2021/09/03 03:33:10;;;;;;;6.97;5.93;;;;;;;15.18;71.97;95431.41;5012944;28;20457;-82
2021/09/03 03:35:37;;;;;;;6.03;5.47;;;;;;;15.20;71.89;95428.63;5013077;28;20443;-82
2021/09/03 03:38:04;;;;;;;7.63;5.77;;;;;;;15.17;71.89;95428.94;5013525;28;21045;-82
2021/09/03 03:40:33;;;;;;;6.80;5.60;;;;;;;15.17;71.66;95428.94;4995332;28;20519;-82
2021/09/03 03:43:00;;;;;;;10.00;5.50;;;;;;;15.11;71.91;95426.88;5014353;28;20443;-82
2021/09/03 03:45:27;;;;;;;6.97;6.27;;;;;;;15.04;72.08;95444.28;5013376;28;20529;-82
2021/09/03 03:47:54;;;;;;;6.37;5.77;;;;;;;15.00;72.71;95443.72;5013957;28;20517;-82
2021/09/03 03:50:21;;;;;;;6.60;5.87;;;;;;;14.97;72.69;95440.53;5013997;28;20515;-82
2021/09/03 03:52:48;;;;;;;6.07;5.50;;;;;;;14.93;72.58;95447.91;5013542;28;20481;-82
2021/09/03 03:55:15;;;;;;;6.30;5.40;;;;;;;14.89;72.51;95457.09;5013490;28;20450;-81
2021/09/03 03:57:46;;;;;;;6.93;5.30;;;;;;;14.85;72.27;95458.38;5012983;28;20924;-82
2021/09/03 04:00:14;;;;;;;6.53;5.13;;;;;;;14.91;72.38;95463.06;5013031;28;21010;-82
2021/09/03 04:02:41;;;;;;;5.40;4.87;;;;;;;14.93;72.09;95465.56;4994043;28;20492;-82
2021/09/03 04:05:09;;;;;;;6.00;5.40;;;;;;;14.95;72.29;95472.38;5012339;28;20534;-82
2021/09/03 04:07:36;;;;;;;6.37;5.50;;;;;;;15.00;72.02;95474.59;4994169;28;20531;-83
2021/09/03 04:10:03;;;;;;;6.97;6.03;;;;;;;15.02;71.92;95468.19;5012517;28;20455;-82
2021/09/03 04:12:30;;;;;;;7.20;5.07;;;;;;;15.16;72.39;95470.38;5012598;28;20530;-90
2021/09/03 04:14:59;;;;;;;6.00;5.10;;;;;;;15.62;71.30;95470.53;5012466;28;20478;-82
2021/09/03 04:17:26;;;;;;;6.37;4.80;;;;;;;16.10;69.41;95479.03;5015973;28;20993;-84
2021/09/03 04:19:52;;;;;;;6.70;5.43;;;;;;;16.65;66.86;95476.25;5016019;28;20454;-82
2021/09/03 04:22:19;;;;;;;5.50;5.00;;;;;;;17.15;65.15;95478.31;5015749;28;20431;-83
2021/09/03 04:24:46;;;;;;;10.10;5.50;;;;;;;17.70;62.76;95472.69;5015874;28;20471;-82
2021/09/03 04:27:13;;;;;;;4.97;4.53;;;;;;;18.26;60.98;95480.00;5015881;28;20498;-83
2021/09/03 04:29:40;;;;;;;6.10;5.07;;;;;;;18.77;58.39;95477.25;4996802;28;20818;-82
2021/09/03 04:32:09;;;;;;;4.87;4.37;;;;;;;19.30;56.70;95473.22;5015588;28;20526;-83
2021/09/03 04:34:36;;;;;;;6.63;5.13;;;;;;;19.70;54.92;95464.34;5015795;28;20927;-83
2021/09/03 04:37:03;;;;;;;6.77;5.27;;;;;;;20.15;53.96;95462.81;5015736;28;20525;-80
2021/09/03 04:39:30;;;;;;;5.33;4.30;;;;;;;20.49;52.90;95465.97;5015810;28;20484;-81
2021/09/03 04:41:57;;;;;;;10.73;4.77;;;;;;;20.77;51.53;95466.25;5015582;28;20451;-82
2021/09/03 04:44:24;;;;;;;4.50;4.10;;;;;;;20.90;52.29;95468.34;5015245;28;20539;-81
2021/09/03 04:46:51;;;;;;;10.20;5.93;;;;;;;21.18;56.32;95472.09;5015298;28;20532;-81
2021/09/03 04:49:19;;;;;;;5.57;5.07;;;;;;;21.45;51.95;95472.53;5015235;28;20456;-82
2021/09/03 04:51:46;;;;;;;5.30;4.80;;;;;;;21.83;50.03;95467.94;5015794;28;20524;-82
2021/09/03 04:54:13;;;;;;;6.93;4.93;;;;;;;22.20;49.42;95456.28;5019909;28;20447;-85
2021/09/03 04:56:40;;;;;;;5.77;4.73;;;;;;;22.42;47.68;95463.34;5016673;28;20456;-82
2021/09/03 04:59:07;;;;;;;5.80;5.27;;;;;;;22.56;46.92;95459.81;5034949;28;20499;-83
2021/09/03 05:01:34;;;;;;;4.77;4.37;;;;;;;22.63;46.49;95467.91;5035950;28;20496;-84
2021/09/03 05:04:01;;;;;;;5.37;4.53;;;;;;;22.75;45.95;95465.53;5035904;28;20459;-82
2021/09/03 05:06:29;;;;;;;10.00;4.70;;;;;;;22.85;46.17;95455.41;5036542;28;20519;-82
2021/09/03 05:08:59;;;;;;;7.30;6.00;;;;;;;22.98;45.94;95454.66;5038472;28;20840;-82
2021/09/03 05:11:26;;;;;;;7.10;5.50;;;;;;;23.08;45.46;95455.16;5035731;28;20850;-82
2021/09/03 05:13:53;;;;;;;7.20;4.77;;;;;;;23.24;44.98;95449.53;5035428;28;20458;-82
2021/09/03 05:16:20;;;;;;;6.80;5.27;;;;;;;23.38;45.63;95458.47;5035565;28;20534;-82
2021/09/03 05:18:47;;;;;;;6.70;6.00;;;;;;;23.25;45.93;95450.38;5016783;28;20494;-82
2021/09/03 05:21:14;;;;;;;6.30;5.40;;;;;;;22.50;46.93;95457.88;5034901;28;20457;-81
2021/09/03 05:23:42;;;;;;;13.00;6.80;;;;;;;22.51;47.44;95454.19;5015983;28;20453;-81
2021/09/03 05:26:09;;;;;;;6.97;6.30;;;;;;;21.90;48.60;95461.66;5034392;28;20479;-81
2021/09/03 05:28:37;;;;;;;10.33;6.10;;;;;;;21.44;50.04;95463.69;5033841;28;20444;-81
2021/09/03 05:31:04;;;;;;;8.67;7.13;;;;;;;21.52;50.13;95468.13;5034247;28;20443;-82
2021/09/03 05:33:31;;;;;;;8.57;6.33;;;;;;;21.46;51.02;95464.34;5034674;28;20475;-82
2021/09/03 05:35:58;;;;;;;6.70;5.60;;;;;;;21.28;51.81;95462.00;5034308;28;20938;-82
2021/09/03 05:38:25;;;;;;;7.23;6.27;;;;;;;21.57;50.78;95471.06;5034025;28;20978;-81
2021/09/03 05:40:53;;;;;;;7.10;5.80;;;;;;;21.90;50.97;95472.34;5032210;28;20544;-81
2021/09/03 05:43:22;;;;;;;8.00;6.27;;;;;;;21.96;50.19;95470.78;5015911;28;20816;-82
2021/09/03 05:45:49;;;;;;;15.17;5.67;;;;;;;21.99;50.67;95470.44;5034026;28;20513;-81
2021/09/03 05:48:15;;;;;;;9.00;6.57;;;;;;;22.12;50.41;95475.97;5034239;28;20528;-82
2021/09/03 05:50:42;;;;;;;9.70;6.20;;;;;;;22.08;50.73;95469.34;5015786;28;20440;-82
2021/09/03 05:53:09;;;;;;;14.00;7.20;;;;;;;22.36;50.01;95476.66;5033737;28;20451;-82
2021/09/03 05:55:36;;;;;;;10.73;6.23;;;;;;;22.72;49.21;95479.31;5034291;28;20480;-82
2021/09/03 05:58:05;;;;;;;15.63;7.70;;;;;;;22.90;48.16;95474.38;5033676;28;20491;-82
2021/09/03 06:00:32;;;;;;;8.77;6.47;;;;;;;23.17;47.96;95475.44;5015156;28;20450;-82
2021/09/03 06:03:02;;;;;;;7.73;6.70;;;;;;;23.26;46.54;95468.91;5033946;28;20482;-82
2021/09/03 06:05:29;;;;;;;12.83;7.27;;;;;;;22.96;47.89;95478.13;5033673;28;20802;-82
2021/09/03 06:07:56;;;;;;;7.60;6.90;;;;;;;23.31;47.85;95466.47;5033656;28;20454;-82
2021/09/03 06:10:22;;;;;;;7.17;6.30;;;;;;;23.60;47.04;95475.38;5033443;28;20529;-82
2021/09/03 06:12:50;;;;;;;9.23;6.93;;;;;;;23.75;46.17;95468.06;5033588;28;20444;-82
2021/09/03 06:15:18;;;;;;;8.80;7.07;;;;;;;24.04;46.24;95464.28;5033739;28;20528;-82
2021/09/03 06:17:45;;;;;;;7.70;6.90;;;;;;;24.22;44.54;95472.59;5033256;28;20929;-82
2021/09/03 06:20:14;;;;;;;6.80;6.20;;;;;;;24.48;44.26;95471.91;5033391;28;20524;-82
2021/09/03 06:22:41;;;;;;;11.73;7.10;;;;;;;24.68;43.70;95472.78;5033105;28;20490;-82
2021/09/03 06:25:10;;;;;;;8.63;6.50;;;;;;;24.74;43.85;95479.19;5014991;28;20960;-82
2021/09/03 06:27:38;;;;;;;6.23;5.50;;;;;;;25.06;43.75;95466.88;5014563;28;20473;-82
2021/09/03 06:30:06;;;;;;;11.90;7.40;;;;;;;25.15;43.96;95471.00;5033468;28;20537;-82
2021/09/03 06:32:35;;;;;;;13.93;7.00;;;;;;;25.20;42.56;95467.75;5033157;28;20445;-82
2021/09/03 06:35:04;;;;;;;8.10;6.40;;;;;;;25.39;43.07;95476.81;5033070;28;20449;-82
2021/09/03 06:37:32;;;;;;;11.03;7.53;;;;;;;25.32;41.91;95472.28;5032994;28;21032;-82
2021/09/03 06:40:00;;;;;;;9.80;6.37;;;;;;;25.65;42.98;95471.41;5032148;28;20574;-82
2021/09/03 06:42:28;;;;;;;6.80;6.20;;;;;;;25.85;42.70;95474.09;5033102;28;20541;-82
2021/09/03 06:44:55;;;;;;;11.40;6.90;;;;;;;25.94;41.11;95478.22;5033037;28;20828;-82
2021/09/03 06:47:22;;;;;;;7.13;5.53;;;;;;;25.76;41.12;95478.06;5032773;28;20461;-82
2021/09/03 06:49:50;;;;;;;8.20;7.00;;;;;;;25.71;41.03;95475.97;5032861;28;20536;-82
2021/09/03 06:52:17;;;;;;;9.00;5.90;;;;;;;25.41;40.50;95469.38;5033287;28;20814;-82
2021/09/03 06:54:44;;;;;;;6.47;5.80;;;;;;;25.36;42.50;95472.69;5014463;28;20971;-82
2021/09/03 06:57:11;;;;;;;6.77;6.17;;;;;;;24.86;42.78;95477.56;5033128;28;20525;-82
2021/09/03 06:59:38;;;;;;;10.10;6.40;;;;;;;24.57;41.86;95465.31;5030597;28;20488;-82
2021/09/03 07:02:07;;;;;;;7.00;5.67;;;;;;;24.83;42.69;95471.78;5033318;28;20447;-82
2021/09/03 07:04:34;;;;;;;12.00;6.73;;;;;;;25.19;42.07;95472.28;5032430;28;20512;-82
2021/09/03 07:07:02;;;;;;;6.17;5.40;;;;;;;25.33;40.96;95476.59;5032624;28;20459;-82
2021/09/03 07:09:29;;;;;;;9.83;6.23;;;;;;;25.66;40.79;95473.06;5032954;28;20453;-82
2021/09/03 07:11:56;;;;;;;6.43;5.70;;;;;;;25.88;40.87;95476.38;5032518;28;20441;-83
2021/09/03 07:14:23;;;;;;;7.33;5.43;;;;;;;26.13;40.63;95480.03;5032984;28;20449;-82
2021/09/03 07:16:50;;;;;;;7.30;5.80;;;;;;;26.39;40.18;95471.06;5013794;28;20573;-83
2021/09/03 07:19:16;;;;;;;10.57;5.90;;;;;;;26.51;37.74;95465.81;5032445;28;20516;-83
2021/09/03 07:21:43;;;;;;;5.80;5.30;;;;;;;26.51;38.65;95463.13;5032579;28;20490;-82
2021/09/03 07:24:12;;;;;;;6.13;4.87;;;;;;;26.60;39.74;95461.00;5032812;28;20568;-82
2021/09/03 07:26:39;;;;;;;8.97;6.47;;;;;;;26.81;38.89;95464.19;5032546;28;20485;-82
2021/09/03 07:29:06;;;;;;;5.73;5.23;;;;;;;26.23;39.44;95453.50;5032570;28;20481;-82
2021/09/03 07:31:34;;;;;;;5.33;4.80;;;;;;;26.21;40.15;95454.75;5032359;28;20449;-83
2021/09/03 07:34:02;;;;;;;6.23;5.63;;;;;;;25.94;39.61;95459.38;5032471;28;20526;-83
2021/09/03 07:36:29;;;;;;;6.70;6.00;;;;;;;26.08;39.78;95461.00;5032776;28;20473;-82
2021/09/03 07:38:56;;;;;;;6.57;5.97;;;;;;;26.14;39.42;95464.72;5014060;28;20573;-83
2021/09/03 07:41:24;;;;;;;5.80;5.20;;;;;;;26.31;39.93;95460.53;5032418;28;20934;-82
2021/09/03 07:43:51;;;;;;;5.63;5.07;;;;;;;26.39;39.51;95464.84;5032512;28;20489;-82
2021/09/03 07:46:18;;;;;;;9.80;5.90;;;;;;;26.18;37.87;95472.13;5032207;28;20482;-83
2021/09/03 07:48:45;;;;;;;5.50;5.00;;;;;;;26.10;37.89;95475.06;5032484;28;20814;-83
2021/09/03 07:51:12;;;;;;;5.67;5.17;;;;;;;26.21;39.02;95471.72;5034648;28;20539;-81
2021/09/03 07:53:39;;;;;;;5.70;4.93;;;;;;;25.39;39.05;95474.13;5034220;28;20530;-82
2021/09/03 07:56:06;;;;;;;7.70;5.20;;;;;;;25.68;39.20;95470.19;5017864;28;20541;-82
2021/09/03 07:58:35;;;;;;;7.53;5.10;;;;;;;25.90;38.99;95466.22;5036237;28;20521;-82
2021/09/03 08:01:03;;;;;;;5.70;5.10;;;;;;;26.09;39.17;95461.84;5036340;28;20450;-82
2021/09/03 08:03:30;;;;;;;6.37;5.37;;;;;;;26.10;38.63;95448.16;5036387;28;20451;-83
2021/09/03 08:05:57;;;;;;;10.93;5.50;;;;;;;26.34;39.51;95446.66;5036358;28;20477;-82
2021/09/03 08:08:24;;;;;;;10.40;6.00;;;;;;;26.61;39.45;95449.22;5035977;28;20449;-82
2021/09/03 08:10:51;;;;;;;5.73;5.10;;;;;;;26.79;38.09;95443.91;5035904;28;20481;-82
2021/09/03 08:13:18;;;;;;;6.23;5.03;;;;;;;26.60;37.16;95440.31;5035800;28;20457;-82
2021/09/03 08:15:47;;;;;;;6.80;6.10;;;;;;;26.00;38.23;95438.88;5035884;28;21003;-82
2021/09/03 08:18:14;;;;;;;7.47;6.03;;;;;;;25.97;38.27;95432.06;5035721;28;20486;-82
2021/09/03 08:20:42;;;;;;;7.90;5.40;;;;;;;26.00;39.67;95423.56;5035631;28;20494;-82
2021/09/03 08:23:09;;;;;;;5.13;4.73;;;;;;;26.17;39.27;95424.75;5035927;28;20535;-82
2021/09/03 08:25:36;;;;;;;12.10;5.93;;;;;;;25.73;38.45;95414.75;5035638;28;20529;-82
2021/09/03 08:28:03;;;;;;;6.27;5.67;;;;;;;25.53;39.65;95425.53;5035321;28;21007;-82
2021/09/03 08:30:30;;;;;;;7.70;5.60;;;;;;;25.39;40.50;95421.22;5036017;28;20536;-82
2021/09/03 08:32:59;;;;;;;6.30;5.63;;;;;;;25.39;40.12;95421.22;5035220;28;20449;-82
2021/09/03 08:35:26;;;;;;;9.40;5.67;;;;;;;25.33;40.42;95413.97;5035775;28;20540;-82
2021/09/03 08:37:53;;;;;;;8.70;5.50;;;;;;;25.32;41.55;95415.84;5033552;28;20448;-82
2021/09/03 08:40:21;;;;;;;11.93;6.13;;;;;;;25.44;41.11;95410.66;5016971;28;20481;-82
2021/09/03 08:42:48;;;;;;;8.53;6.00;;;;;;;25.41;40.21;95399.50;5035304;28;20529;-82
2021/09/03 08:45:15;;;;;;;7.60;6.17;;;;;;;25.14;41.52;95393.31;5035204;28;20475;-82
2021/09/03 08:47:44;;;;;;;9.30;6.30;;;;;;;24.33;42.15;95393.47;5016809;28;20438;-82
2021/09/03 08:50:15;;;;;;;9.27;6.13;;;;;;;23.62;42.53;95393.75;5035322;28;20829;-82
2021/09/03 08:52:44;;;;;;;7.53;5.87;;;;;;;23.74;42.95;95394.88;5035123;28;20529;-82
2021/09/03 08:55:11;;;;;;;9.47;6.90;;;;;;;24.01;43.29;95393.13;5035031;28;20453;-82
2021/09/03 08:57:39;;;;;;;14.27;7.33;;;;;;;24.27;43.51;95392.34;5035105;28;20448;-82
2021/09/03 09:00:22;;;;;;;11.27;7.43;;;;;;;24.32;41.91;95389.13;5034927;28;20489;-82
2021/09/03 09:03:05;;;;;;;8.63;6.10;;;;;;;24.53;42.04;95380.06;5034328;28;20499;-82
2021/09/03 09:05:53;;;;;;;14.20;7.47;;;;;;;24.76;40.58;95385.03;5035137;28;20483;-82
2021/09/03 09:08:22;;;;;;;8.30;6.20;;;;;;;24.50;42.29;95385.84;5035133;28;20455;-82
2021/09/03 09:10:53;;;;;;;8.93;6.90;;;;;;;24.40;42.47;95387.06;5034777;28;20446;-82
2021/09/03 09:13:21;;;;;;;15.00;7.43;;;;;;;23.78;41.68;95392.59;5034733;28;20437;-82
2021/09/03 09:16:07;;;;;;;9.07;7.10;;;;;;;23.64;42.63;95385.50;5034507;28;21035;-82
2021/09/03 09:18:37;;;;;;;11.40;6.30;;;;;;;23.85;43.10;95382.72;5034500;28;20498;-82
2021/09/03 09:21:17;;;;;;;9.83;7.17;;;;;;;24.10;43.05;95380.34;5034521;28;20880;-82
2021/09/03 09:23:47;;;;;;;10.20;6.30;;;;;;;24.07;41.28;95373.53;5034516;28;20660;-84
2021/09/03 09:26:15;;;;;;;9.20;6.60;;;;;;;24.12;41.01;95375.63;5034218;28;20543;-82
2021/09/03 09:28:42;;;;;;;16.27;7.37;;;;;;;24.33;40.28;95377.34;5035201;28;20863;-82
2021/09/03 09:31:10;;;;;;;9.13;6.83;;;;;;;24.42;39.88;95376.13;5034262;28;21016;-82
2021/09/03 09:33:37;;;;;;;9.80;6.87;;;;;;;24.62;40.34;95368.94;5034115;28;20531;-82
2021/09/03 09:36:05;;;;;;;8.60;6.20;;;;;;;24.71;40.04;95366.88;5034544;28;20448;-82
2021/09/03 09:38:36;;;;;;;11.63;7.63;;;;;;;24.50;39.14;95365.19;5034114;28;20445;-82
2021/09/03 09:41:06;;;;;;;7.97;6.77;;;;;;;24.53;41.04;95364.78;5034008;28;20645;-82
2021/09/03 09:43:35;;;;;;;10.13;7.67;;;;;;;24.42;40.95;95365.41;5015662;28;20474;-82
2021/09/03 09:46:20;;;;;;;11.20;6.30;;;;;;;24.36;41.02;95364.38;5034410;28;20450;-82
2021/09/03 09:49:12;;;;;;;9.70;7.63;;;;;;;24.29;40.48;95357.34;5034222;28;20527;-82
2021/09/03 09:51:48;;;;;;;8.93;7.00;;;;;;;24.18;42.14;95360.56;5011936;28;20446;-82
2021/09/03 09:54:20;;;;;;;8.40;6.57;;;;;;;23.87;41.37;95353.88;5012050;28;20459;-82
2021/09/03 09:56:48;;;;;;;9.10;6.90;;;;;;;23.86;42.94;95351.41;5011734;28;20640;-82
2021/09/03 09:59:16;;;;;;;9.30;6.80;;;;;;;23.63;43.02;95349.84;5011759;28;20562;-81
2021/09/03 10:01:46;;;;;;;9.63;6.03;;;;;;;23.62;42.69;95356.25;5011819;28;20890;-82
2021/09/03 10:04:14;;;;;;;8.77;7.80;;;;;;;23.66;41.66;95351.31;4979308;28;20944;-81
2021/09/03 10:06:44;;;;;;;11.77;7.23;;;;;;;23.83;41.52;95352.63;5012026;28;20820;-82
2021/09/03 10:09:13;;;;;;;7.23;6.60;;;;;;;23.83;42.19;95343.75;5011631;28;20450;-82
2021/09/03 10:11:43;;;;;;;6.97;6.33;;;;;;;23.79;42.33;95344.16;5011602;28;20451;-82
2021/09/03 10:14:11;;;;;;;7.20;6.43;;;;;;;23.79;42.75;95338.81;5011379;28;20888;-82
2021/09/03 10:16:38;;;;;;;18.83;8.57;;;;;;;23.70;41.73;95328.44;5011274;28;20567;-82
2021/09/03 10:19:07;;;;;;;6.93;6.30;;;;;;;23.86;41.91;95329.94;5011408;28;20525;-82
2021/09/03 10:21:38;;;;;;;9.30;7.97;;;;;;;23.39;42.78;95326.22;5011460;28;20523;-82
2021/09/03 10:24:09;;;;;;;9.40;7.40;;;;;;;23.35;42.49;95333.81;5011575;28;20441;-81
2021/09/03 10:26:37;;;;;;;10.90;6.10;;;;;;;23.50;44.70;95322.97;5011468;28;20442;-82
2021/09/03 10:29:33;;;;;;;8.37;6.50;;;;;;;23.75;44.49;95323.31;5026895;28;20549;-82
2021/09/03 10:32:19;;;;;;;8.00;7.20;;;;;;;23.76;42.98;95324.97;5047846;28;20437;-82
2021/09/03 10:34:58;;;;;;;8.70;6.20;;;;;;;23.83;43.53;95325.81;5033325;28;20475;-82
2021/09/03 10:37:28;;;;;;;10.67;6.60;;;;;;;23.91;41.90;95331.00;5033283;28;20454;-82
2021/09/03 10:39:58;;;;;;;7.37;6.60;;;;;;;23.95;42.69;95321.50;5033166;28;20514;-82
2021/09/03 10:42:45;;;;;;;7.40;6.70;;;;;;;24.05;43.56;95321.97;5033028;28;20457;-82
2021/09/03 10:45:16;;;;;;;8.77;6.47;;;;;;;24.18;41.68;95317.66;5032887;28;20488;-82
2021/09/03 10:47:45;;;;;;;10.17;7.00;;;;;;;24.28;42.46;95307.38;5033000;28;20449;-82
2021/09/03 10:50:18;;;;;;;15.53;6.87;;;;;;;24.22;41.75;95310.84;5033240;28;20456;-82
2021/09/03 10:53:19;;;;;;;7.30;6.50;;;;;;;24.26;42.96;95312.09;5033012;28;20449;-82
2021/09/03 10:55:52;;;;;;;9.53;7.20;;;;;;;24.38;43.71;95310.50;5032886;28;20523;-82
2021/09/03 10:58:40;;;;;;;10.87;6.90;;;;;;;24.52;42.31;95305.97;5032855;28;20485;-82
2021/09/03 11:01:34;;;;;;;8.13;6.23;;;;;;;24.44;40.77;95301.63;5032709;28;20485;-82
2021/09/03 11:04:04;;;;;;;13.13;6.53;;;;;;;24.46;41.33;95304.94;5032677;28;20531;-83
2021/09/03 11:06:35;;;;;;;9.00;7.30;;;;;;;24.37;39.56;95296.25;5014586;28;20441;-81
2021/09/03 11:09:04;;;;;;;7.53;6.50;;;;;;;24.31;40.81;95294.41;5032762;28;20794;-81
2021/09/03 11:11:33;;;;;;;9.10;6.63;;;;;;;24.39;41.18;95293.38;5014308;28;21023;-81
2021/09/03 11:14:02;;;;;;;11.03;7.37;;;;;;;24.48;40.85;95286.78;5032764;28;20487;-81
2021/09/03 11:16:35;;;;;;;8.43;6.93;;;;;;;24.59;40.64;95290.72;5032146;28;20464;-81
2021/09/03 11:19:05;;;;;;;6.60;5.90;;;;;;;24.62;39.87;95292.97;5032976;28;20454;-81
2021/09/03 11:21:33;;;;;;;6.83;6.13;;;;;;;24.67;41.14;95294.00;5013881;28;20490;-81
2021/09/03 11:24:01;;;;;;;8.20;6.27;;;;;;;24.80;41.02;95295.00;5032535;28;20477;-82
2021/09/03 11:26:29;;;;;;;13.53;6.37;;;;;;;24.82;40.15;95287.56;5031930;28;20874;-81
2021/09/03 11:28:57;;;;;;;10.50;6.47;;;;;;;24.91;38.89;95280.97;5032415;28;20453;-81
2021/09/03 11:31:24;;;;;;;10.90;6.77;;;;;;;24.83;39.85;95291.91;5032349;28;20544;-81
2021/09/03 11:33:53;;;;;;;6.37;5.33;;;;;;;24.80;38.62;95284.28;5032586;28;20504;-81
2021/09/03 11:36:20;;;;;;;7.67;6.97;;;;;;;24.88;40.71;95284.06;5032493;28;20532;-81
2021/09/03 11:38:54;;;;;;;9.93;7.10;;;;;;;25.01;40.52;95271.47;5032256;28;20445;-81